Terminal Aerodrome Forecast
Issued by NWS

Home | Current Version | Previous Version | Text Only | Print | Product List | Glossary Off
Versions: 1 2 3 4 5 6 7 8 9 10 11 12 13 14 15 16 17

459
FTUS43 KABR 160520
TAFPIR
TAF
KPIR 160520Z 1606/1706 11006KT P6SM BKN200
     FM160800 11014KT P6SM BKN250
     FM161300 12020G28KT P6SM BKN250
     FM162100 15014KT P6SM SCT250=

USA.gov is the U.S. government's official web portal to all federal, state and local government web resources and services.